Time;durP1;ratioP1;P1;durP2;ratioP2;P2;SDS_P1;SDS_P2;PMS_P1;PMS_P2;Temp;Humidity;BMP_temperature;BMP_pressure;BME280_temperature;BME280_humidity;BME280_pressure;Samples;Min_cycle;Max_cycle;Signal;HPM_P1;HPM_P2
2021/12/12 00:01:19;;;;;;;16.63;10.37;;;;;;;;;;4936691;29;20293;-74
2021/12/12 00:03:49;;;;;;;17.57;10.30;;;;;;;;;;4939486;29;20228;-74
2021/12/12 00:06:19;;;;;;;15.63;9.60;;;;;;;;;;4930806;29;20662;-74
2021/12/12 00:08:47;;;;;;;14.67;8.97;;;;;;;;;;4920123;29;20689;-74
2021/12/12 00:11:16;;;;;;;15.60;9.63;;;;;;;;;;4935133;29;20198;-74
2021/12/12 00:13:44;;;;;;;15.20;9.43;;;;;;;;;;4931655;29;20271;-74
2021/12/12 00:16:11;;;;;;;13.90;8.83;;;;;;;;;;4946125;29;20194;-74
2021/12/12 00:18:37;;;;;;;16.50;9.80;;;;;;;;;;4932807;29;20197;-74
2021/12/12 00:21:05;;;;;;;13.23;9.47;;;;;;;;;;4933997;29;20213;-74
2021/12/12 00:23:32;;;;;;;16.03;9.03;;;;;;;;;;4930829;28;20635;-74
2021/12/12 00:25:58;;;;;;;17.03;8.93;;;;;;;;;;4937761;29;20178;-74
2021/12/12 00:28:26;;;;;;;12.93;8.67;;;;;;;;;;4932159;29;20713;-74
2021/12/12 00:30:54;;;;;;;13.43;8.43;;;;;;;;;;4943030;28;20178;-74
2021/12/12 00:33:22;;;;;;;13.73;8.20;;;;;;;;;;4944760;29;20197;-74
2021/12/12 00:35:49;;;;;;;13.80;8.23;;;;;;;;;;4940686;29;20214;-74
2021/12/12 00:38:17;;;;;;;13.37;7.40;;;;;;;;;;4926650;29;20256;-74
2021/12/12 00:40:47;;;;;;;14.60;7.30;;;;;;;;;;4934355;29;20190;-74
2021/12/12 00:43:19;;;;;;;12.60;7.73;;;;;;;;;;4922002;29;20186;-74
2021/12/12 00:45:46;;;;;;;11.47;7.73;;;;;;;;;;4934193;29;20198;-74
2021/12/12 00:48:12;;;;;;;15.23;7.07;;;;;;;;;;4931777;29;20201;-74
2021/12/12 00:50:39;;;;;;;12.33;6.73;;;;;;;;;;4933755;29;20721;-74
2021/12/12 00:53:07;;;;;;;14.67;7.17;;;;;;;;;;4938359;29;20182;-74
2021/12/12 00:55:37;;;;;;;11.43;6.27;;;;;;;;;;4935157;29;20224;-74
2021/12/12 00:58:07;;;;;;;11.43;6.43;;;;;;;;;;4926997;29;20256;-74
2021/12/12 01:00:40;;;;;;;10.83;6.03;;;;;;;;;;4930455;29;20186;-74
2021/12/12 01:03:09;;;;;;;13.37;6.37;;;;;;;;;;4939946;29;20232;-74
2021/12/12 01:05:36;;;;;;;15.00;6.90;;;;;;;;;;4934015;29;20193;-74
2021/12/12 01:08:04;;;;;;;9.50;6.07;;;;;;;;;;4932127;29;20284;-74
2021/12/12 01:10:33;;;;;;;11.43;6.10;;;;;;;;;;4943656;29;20920;-74
2021/12/12 01:13:00;;;;;;;13.77;5.97;;;;;;;;;;4918123;29;20190;-74
2021/12/12 01:15:30;;;;;;;11.20;6.20;;;;;;;;;;4937267;29;20217;-74
2021/12/12 01:17:58;;;;;;;12.30;6.43;;;;;;;;;;4925120;29;20664;-74
2021/12/12 01:20:36;;;;;;;10.47;5.63;;;;;;;;;;4917794;29;20178;-74
2021/12/12 01:23:05;;;;;;;12.77;6.03;;;;;;;;;;4934228;29;20684;-74
2021/12/12 01:25:34;;;;;;;9.53;5.10;;;;;;;;;;4945814;29;20193;-74
2021/12/12 01:28:01;;;;;;;11.03;5.33;;;;;;;;;;4921455;29;20233;-74
2021/12/12 01:30:28;;;;;;;11.43;5.83;;;;;;;;;;4925171;29;20177;-74
2021/12/12 01:32:55;;;;;;;8.33;5.50;;;;;;;;;;4929313;29;20244;-74
2021/12/12 01:35:21;;;;;;;10.23;5.30;;;;;;;;;;4926118;29;20209;-74
2021/12/12 01:38:51;;;;;;;13.43;5.70;;;;;;;;;;4917015;29;20185;-74
2021/12/12 01:40:36;;;;;;;10.10;5.17;;;;;;;;;;4931119;29;20229;-74
2021/12/12 01:43:06;;;;;;;10.93;4.93;;;;;;;;;;4937489;29;20701;-74
2021/12/12 01:45:34;;;;;;;9.83;4.97;;;;;;;;;;4940553;29;20248;-74
2021/12/12 01:48:14;;;;;;;8.30;4.80;;;;;;;;;;4931337;29;20204;-74
2021/12/12 01:50:43;;;;;;;8.70;4.50;;;;;;;;;;4938146;29;20692;-74
2021/12/12 01:53:10;;;;;;;11.53;5.20;;;;;;;;;;4933604;29;20194;-74
2021/12/12 01:55:40;;;;;;;10.10;4.50;;;;;;;;;;4900375;29;20734;-74
2021/12/12 01:58:11;;;;;;;10.23;5.20;;;;;;;;;;4930058;29;20202;-74
2021/12/12 02:00:39;;;;;;;13.97;5.30;;;;;;;;;;4932651;29;20241;-74
2021/12/12 02:03:07;;;;;;;9.93;4.67;;;;;;;;;;4936510;29;20214;-74
2021/12/12 02:05:34;;;;;;;10.27;5.43;;;;;;;;;;4922070;29;20276;-74
2021/12/12 02:08:04;;;;;;;9.87;5.30;;;;;;;;;;4933321;29;20572;-74
2021/12/12 02:10:35;;;;;;;13.00;5.63;;;;;;;;;;4937252;29;20301;-74
2021/12/12 02:13:04;;;;;;;11.93;5.30;;;;;;;;;;4931771;29;20192;-74
2021/12/12 02:15:32;;;;;;;10.43;5.20;;;;;;;;;;4938525;29;20733;-74
2021/12/12 02:17:59;;;;;;;9.23;4.70;;;;;;;;;;4930878;29;20244;-74
2021/12/12 02:20:47;;;;;;;11.23;4.83;;;;;;;;;;4922334;29;20308;-74
2021/12/12 02:23:29;;;;;;;8.40;4.37;;;;;;;;;;4919062;29;20217;-76
2021/12/12 02:37:02;;;;;;;10.47;4.93;;;;;;;;;;4935197;29;20561;-74
2021/12/12 02:39:28;;;;;;;10.80;4.70;;;;;;;;;;4920048;29;20200;-74
2021/12/12 02:41:56;;;;;;;8.93;4.53;;;;;;;;;;4918684;29;20193;-74
2021/12/12 02:44:28;;;;;;;9.53;5.00;;;;;;;;;;4910765;29;20672;-74
2021/12/12 02:46:57;;;;;;;9.87;5.40;;;;;;;;;;4939161;29;20181;-74
2021/12/12 02:49:39;;;;;;;11.47;5.60;;;;;;;;;;4936261;29;20576;-74
2021/12/12 02:52:07;;;;;;;7.40;4.70;;;;;;;;;;4942605;29;20650;-74
2021/12/12 02:54:33;;;;;;;11.87;4.87;;;;;;;;;;4927495;29;20217;-74
2021/12/12 02:56:59;;;;;;;11.00;5.30;;;;;;;;;;4945478;29;20182;-74
2021/12/12 02:59:26;;;;;;;11.77;5.17;;;;;;;;;;4936722;29;20208;-74
2021/12/12 03:01:58;;;;;;;10.77;5.60;;;;;;;;;;4939129;29;20745;-74
2021/12/12 03:04:25;;;;;;;9.10;6.00;;;;;;;;;;4936975;29;20189;-74
2021/12/12 03:06:51;;;;;;;10.43;5.40;;;;;;;;;;4936478;29;20194;-74
2021/12/12 03:09:26;;;;;;;10.47;5.53;;;;;;;;;;4922852;29;20216;-74
2021/12/12 03:11:58;;;;;;;11.73;6.33;;;;;;;;;;4936574;29;20197;-74
2021/12/12 03:14:27;;;;;;;12.77;5.90;;;;;;;;;;4939945;29;20301;-74
2021/12/12 03:16:53;;;;;;;12.37;5.43;;;;;;;;;;4925953;29;20216;-75
2021/12/12 03:19:20;;;;;;;10.23;5.00;;;;;;;;;;4947885;29;20706;-74
2021/12/12 03:21:47;;;;;;;10.07;4.87;;;;;;;;;;4943790;29;20196;-74
2021/12/12 03:24:15;;;;;;;8.43;4.40;;;;;;;;;;4936423;29;20202;-75
2021/12/12 03:26:43;;;;;;;6.50;3.67;;;;;;;;;;4944129;29;20209;-75
2021/12/12 03:29:09;;;;;;;6.63;3.83;;;;;;;;;;4933320;29;20214;-75
2021/12/12 03:31:37;;;;;;;7.97;4.10;;;;;;;;;;4934692;29;20186;-75
2021/12/12 03:34:05;;;;;;;7.20;3.83;;;;;;;;;;4934737;29;20761;-75
2021/12/12 03:36:32;;;;;;;9.87;4.20;;;;;;;;;;4934449;29;20194;-75
2021/12/12 03:39:03;;;;;;;10.00;4.17;;;;;;;;;;4935448;29;20233;-74
2021/12/12 03:41:32;;;;;;;8.13;4.57;;;;;;;;;;4933236;29;20190;-75
2021/12/12 03:44:00;;;;;;;6.13;3.40;;;;;;;;;;4935966;29;20186;-75
2021/12/12 03:46:26;;;;;;;8.20;3.60;;;;;;;;;;4935320;29;20738;-75
2021/12/12 03:48:54;;;;;;;7.93;3.77;;;;;;;;;;4935981;29;20213;-75
2021/12/12 03:51:21;;;;;;;8.53;3.90;;;;;;;;;;4935028;29;20273;-75
2021/12/12 03:53:47;;;;;;;10.07;3.97;;;;;;;;;;4935540;29;20210;-75
2021/12/12 03:56:14;;;;;;;8.07;3.80;;;;;;;;;;4935497;29;20658;-75
2021/12/12 03:58:41;;;;;;;7.83;3.77;;;;;;;;;;4947214;28;20252;-75
2021/12/12 04:01:26;;;;;;;10.30;4.10;;;;;;;;;;4935212;29;20265;-75
2021/12/12 04:03:54;;;;;;;6.93;3.50;;;;;;;;;;4914073;29;20194;-75
2021/12/12 04:06:22;;;;;;;7.47;4.33;;;;;;;;;;4934475;29;20210;-75
2021/12/12 04:08:49;;;;;;;9.87;3.97;;;;;;;;;;4934464;29;20252;-75
2021/12/12 04:11:18;;;;;;;7.67;4.00;;;;;;;;;;4934527;29;20253;-75
2021/12/12 04:13:46;;;;;;;10.03;4.17;;;;;;;;;;4923638;29;20260;-75
2021/12/12 04:16:12;;;;;;;12.47;3.70;;;;;;;;;;4928989;29;20295;-75
2021/12/12 04:18:38;;;;;;;9.07;4.30;;;;;;;;;;4935121;29;20212;-74
2021/12/12 04:21:05;;;;;;;8.53;4.10;;;;;;;;;;4935115;29;20178;-74
2021/12/12 04:23:31;;;;;;;7.87;3.80;;;;;;;;;;4937355;29;20248;-74
2021/12/12 04:26:08;;;;;;;9.57;4.43;;;;;;;;;;4918214;29;20189;-74
2021/12/12 04:28:35;;;;;;;8.43;3.70;;;;;;;;;;4933023;29;20688;-74
2021/12/12 04:31:01;;;;;;;7.17;3.83;;;;;;;;;;4933317;29;20186;-74
2021/12/12 04:33:27;;;;;;;11.67;3.57;;;;;;;;;;4932240;29;20193;-74
2021/12/12 04:35:53;;;;;;;6.10;3.53;;;;;;;;;;4915085;29;20198;-74
2021/12/12 04:38:19;;;;;;;8.23;4.00;;;;;;;;;;4916093;29;20210;-74
2021/12/12 04:40:45;;;;;;;10.40;4.27;;;;;;;;;;4931999;29;20602;-75
2021/12/12 04:43:11;;;;;;;11.20;4.77;;;;;;;;;;4931784;29;20214;-75
2021/12/12 04:45:52;;;;;;;9.03;4.03;;;;;;;;;;4932369;29;20705;-75
2021/12/12 04:51:20;;;;;;;11.47;5.00;;;;;;;;;;4932767;29;20222;-74
2021/12/12 04:53:52;;;;;;;10.27;4.57;;;;;;;;;;4933824;29;20271;-74
2021/12/12 04:56:21;;;;;;;10.30;4.40;;;;;;;;;;4915055;29;20190;-74
2021/12/12 04:58:52;;;;;;;12.60;4.57;;;;;;;;;;4907196;29;20206;-74
2021/12/12 05:01:25;;;;;;;7.67;4.23;;;;;;;;;;4915527;29;20256;-74
2021/12/12 05:04:00;;;;;;;12.77;5.33;;;;;;;;;;4931196;29;20186;-74
2021/12/12 05:06:26;;;;;;;12.53;6.57;;;;;;;;;;4932533;29;20181;-74
2021/12/12 05:08:56;;;;;;;12.63;5.80;;;;;;;;;;4896675;29;20366;-74
2021/12/12 05:11:29;;;;;;;9.10;4.83;;;;;;;;;;4931896;29;20622;-74
2021/12/12 05:14:03;;;;;;;10.17;4.67;;;;;;;;;;4930389;29;20225;-74
2021/12/12 05:16:32;;;;;;;9.57;5.33;;;;;;;;;;4930422;29;20185;-74
2021/12/12 05:19:28;;;;;;;10.23;5.07;;;;;;;;;;4930828;29;20297;-75
2021/12/12 05:21:56;;;;;;;9.60;4.70;;;;;;;;;;4905327;29;20208;-74
2021/12/12 05:24:23;;;;;;;8.80;4.50;;;;;;;;;;4931159;29;20195;-74
2021/12/12 05:26:51;;;;;;;10.33;4.90;;;;;;;;;;4932250;29;20600;-74
2021/12/12 05:29:20;;;;;;;11.67;5.40;;;;;;;;;;4932876;29;20210;-76
2021/12/12 05:31:48;;;;;;;13.97;6.03;;;;;;;;;;4932822;29;20240;-76
2021/12/12 05:34:15;;;;;;;8.90;5.77;;;;;;;;;;4932113;29;20736;-76
2021/12/12 05:36:41;;;;;;;11.17;6.10;;;;;;;;;;4931733;29;20194;-76
2021/12/12 05:39:08;;;;;;;11.23;5.50;;;;;;;;;;4931567;29;20348;-76
2021/12/12 05:41:34;;;;;;;12.77;5.53;;;;;;;;;;4933542;29;20236;-76
2021/12/12 05:44:02;;;;;;;9.33;5.40;;;;;;;;;;4932873;29;20279;-76
2021/12/12 05:46:28;;;;;;;16.10;6.77;;;;;;;;;;4930501;29;20220;-76
2021/12/12 05:48:54;;;;;;;11.00;5.90;;;;;;;;;;4913831;29;20209;-76
2021/12/12 05:51:21;;;;;;;15.53;7.53;;;;;;;;;;4899146;29;20277;-76
2021/12/12 05:53:54;;;;;;;13.80;7.27;;;;;;;;;;4934566;29;20278;-76
2021/12/12 05:56:28;;;;;;;10.20;6.10;;;;;;;;;;4929948;29;20205;-76
2021/12/12 05:58:54;;;;;;;14.43;7.10;;;;;;;;;;4932603;29;20206;-76
2021/12/12 06:01:21;;;;;;;11.87;6.80;;;;;;;;;;4931802;29;20201;-77
2021/12/12 06:03:48;;;;;;;12.43;7.60;;;;;;;;;;4929593;29;20268;-76
2021/12/12 06:06:17;;;;;;;12.57;7.07;;;;;;;;;;4930291;29;20696;-76
2021/12/12 06:08:44;;;;;;;11.17;7.00;;;;;;;;;;4929980;29;20214;-76
2021/12/12 06:11:11;;;;;;;12.93;6.90;;;;;;;;;;4932278;29;20186;-76
2021/12/12 06:13:38;;;;;;;11.50;6.80;;;;;;;;;;4929695;29;20214;-76
2021/12/12 06:16:05;;;;;;;11.47;7.27;;;;;;;;;;4930041;29;20193;-76
2021/12/12 06:18:32;;;;;;;12.33;7.43;;;;;;;;;;4930287;29;20217;-76
2021/12/12 06:20:59;;;;;;;15.53;8.27;;;;;;;;;;4932136;29;20718;-76
2021/12/12 06:23:26;;;;;;;13.43;7.77;;;;;;;;;;4931181;29;20193;-76
2021/12/12 06:25:53;;;;;;;13.43;7.90;;;;;;;;;;4932495;29;20197;-76
2021/12/12 06:28:22;;;;;;;12.93;8.03;;;;;;;;;;4929071;29;20634;-76
2021/12/12 06:30:48;;;;;;;13.70;8.17;;;;;;;;;;4911648;29;20182;-76
2021/12/12 06:33:14;;;;;;;14.83;8.97;;;;;;;;;;4931056;29;20198;-76
2021/12/12 06:35:41;;;;;;;12.73;8.37;;;;;;;;;;4930649;29;20308;-76
2021/12/12 06:38:08;;;;;;;13.87;8.53;;;;;;;;;;4930245;29;20205;-76
2021/12/12 06:40:34;;;;;;;13.47;8.23;;;;;;;;;;4931292;29;20181;-76
2021/12/12 06:43:02;;;;;;;14.03;9.80;;;;;;;;;;4928197;29;20189;-76
2021/12/12 06:45:28;;;;;;;15.53;8.80;;;;;;;;;;4913736;29;20528;-76
2021/12/12 06:47:55;;;;;;;17.47;9.60;;;;;;;;;;4930921;29;20193;-76
2021/12/12 06:50:23;;;;;;;17.73;9.30;;;;;;;;;;4931728;29;20590;-76
2021/12/12 06:52:49;;;;;;;15.73;9.30;;;;;;;;;;4928683;29;20213;-76
2021/12/12 06:55:15;;;;;;;17.77;9.80;;;;;;;;;;4948580;28;20342;-76
2021/12/12 06:57:42;;;;;;;14.17;9.00;;;;;;;;;;4931724;29;20244;-76
2021/12/12 07:00:10;;;;;;;14.60;8.90;;;;;;;;;;4931510;29;20879;-76
2021/12/12 07:02:36;;;;;;;16.63;9.70;;;;;;;;;;4932258;29;20248;-76
2021/12/12 07:05:03;;;;;;;14.77;10.50;;;;;;;;;;4930691;29;20194;-76
2021/12/12 07:07:30;;;;;;;14.80;9.07;;;;;;;;;;4928824;29;20189;-76
2021/12/12 07:09:56;;;;;;;14.37;8.80;;;;;;;;;;4930153;29;20229;-76
2021/12/12 07:12:23;;;;;;;15.93;9.50;;;;;;;;;;4911603;29;20627;-76
2021/12/12 07:14:50;;;;;;;13.90;9.43;;;;;;;;;;4929946;29;20285;-76
2021/12/12 07:17:17;;;;;;;15.13;9.60;;;;;;;;;;4931301;29;20241;-76
2021/12/12 07:19:43;;;;;;;14.87;9.70;;;;;;;;;;4932051;29;20237;-76
2021/12/12 07:22:09;;;;;;;17.23;10.47;;;;;;;;;;4913368;29;20277;-76
2021/12/12 07:24:36;;;;;;;17.13;10.43;;;;;;;;;;4931414;29;20200;-76
2021/12/12 07:27:02;;;;;;;16.13;10.23;;;;;;;;;;4932770;29;20628;-76
2021/12/12 07:29:29;;;;;;;16.67;10.20;;;;;;;;;;4913296;29;20598;-76
2021/12/12 07:31:56;;;;;;;15.80;10.40;;;;;;;;;;4930485;29;20706;-76
2021/12/12 07:34:22;;;;;;;14.43;10.83;;;;;;;;;;4916388;29;20220;-76
2021/12/12 07:36:55;;;;;;;17.10;11.03;;;;;;;;;;4917023;29;20713;-76
2021/12/12 07:39:24;;;;;;;18.80;10.60;;;;;;;;;;4914088;29;20917;-76
2021/12/12 07:41:53;;;;;;;19.70;10.70;;;;;;;;;;4934547;29;20192;-76
2021/12/12 07:44:20;;;;;;;14.83;9.90;;;;;;;;;;4935001;29;20560;-76
2021/12/12 07:46:48;;;;;;;15.43;10.50;;;;;;;;;;4933516;29;20654;-76
2021/12/12 07:49:18;;;;;;;15.90;10.37;;;;;;;;;;4917473;29;20213;-76
2021/12/12 07:51:44;;;;;;;14.00;10.27;;;;;;;;;;4918303;29;20281;-77
2021/12/12 07:54:10;;;;;;;15.53;10.27;;;;;;;;;;4934993;29;20473;-77
2021/12/12 07:56:38;;;;;;;16.60;10.40;;;;;;;;;;4917985;29;20182;-77
2021/12/12 07:59:06;;;;;;;14.13;10.80;;;;;;;;;;4934307;29;20202;-78
2021/12/12 08:01:33;;;;;;;16.47;10.37;;;;;;;;;;4935736;29;20194;-78
2021/12/12 08:04:00;;;;;;;15.87;10.20;;;;;;;;;;4918636;29;20190;-77
2021/12/12 08:06:26;;;;;;;17.57;10.80;;;;;;;;;;4935256;29;20201;-78
2021/12/12 08:08:53;;;;;;;17.93;10.60;;;;;;;;;;4926945;29;20245;-77
2021/12/12 08:11:21;;;;;;;16.70;10.53;;;;;;;;;;4944672;29;20197;-77
2021/12/12 08:13:47;;;;;;;15.63;10.40;;;;;;;;;;4935516;29;20198;-77
2021/12/12 08:16:15;;;;;;;18.10;10.60;;;;;;;;;;4917131;29;20599;-77
2021/12/12 08:18:41;;;;;;;17.27;10.80;;;;;;;;;;4933090;29;20202;-77
2021/12/12 08:21:08;;;;;;;15.20;10.00;;;;;;;;;;4932701;29;20189;-77
2021/12/12 08:23:35;;;;;;;14.60;9.13;;;;;;;;;;4915916;29;20174;-76
2021/12/12 08:26:02;;;;;;;13.83;9.50;;;;;;;;;;4899437;29;20194;-76
2021/12/12 08:28:30;;;;;;;13.57;9.33;;;;;;;;;;4916837;29;20241;-76
2021/12/12 08:30:56;;;;;;;12.77;9.47;;;;;;;;;;4917887;29;20616;-77
2021/12/12 08:33:22;;;;;;;13.90;9.27;;;;;;;;;;4933143;29;20185;-76
2021/12/12 08:35:49;;;;;;;16.70;9.40;;;;;;;;;;4934429;29;20225;-76
2021/12/12 08:38:15;;;;;;;19.20;12.27;;;;;;;;;;4932222;29;20221;-76
2021/12/12 08:40:45;;;;;;;20.10;11.17;;;;;;;;;;4921078;29;20189;-76
2021/12/12 08:43:13;;;;;;;17.50;9.87;;;;;;;;;;4932359;29;20193;-76
2021/12/12 08:45:42;;;;;;;14.23;8.93;;;;;;;;;;4940579;29;20603;-76
2021/12/12 08:48:08;;;;;;;14.93;9.87;;;;;;;;;;4933853;29;20202;-76
2021/12/12 08:50:38;;;;;;;17.10;10.30;;;;;;;;;;4918418;29;20179;-76
2021/12/12 08:53:05;;;;;;;19.43;9.43;;;;;;;;;;4928585;29;20222;-76
2021/12/12 08:55:36;;;;;;;13.47;9.37;;;;;;;;;;4926940;29;20218;-76
2021/12/12 08:58:14;;;;;;;14.50;8.60;;;;;;;;;;4924615;29;20190;-76
2021/12/12 09:00:58;;;;;;;13.23;8.30;;;;;;;;;;4931574;29;20269;-76
2021/12/12 09:03:27;;;;;;;13.10;8.93;;;;;;;;;;4939898;29;20198;-78
2021/12/12 09:05:53;;;;;;;14.67;8.97;;;;;;;;;;4948052;29;20184;-78
2021/12/12 09:08:32;;;;;;;16.33;10.27;;;;;;;;;;4917246;29;20230;-77
2021/12/12 09:11:02;;;;;;;14.10;9.43;;;;;;;;;;4932360;29;20569;-77
2021/12/12 09:13:32;;;;;;;14.23;8.40;;;;;;;;;;4932052;29;20195;-77
2021/12/12 09:16:08;;;;;;;16.03;9.03;;;;;;;;;;4917962;29;20220;-77
2021/12/12 09:18:37;;;;;;;13.47;8.20;;;;;;;;;;4918845;29;20753;-77
2021/12/12 09:21:10;;;;;;;15.00;8.73;;;;;;;;;;4913511;29;20174;-78
2021/12/12 09:23:49;;;;;;;15.83;8.10;;;;;;;;;;4914955;29;20189;-78
2021/12/12 09:26:18;;;;;;;13.60;7.87;;;;;;;;;;4915619;29;20194;-77
2021/12/12 09:28:52;;;;;;;12.37;7.33;;;;;;;;;;4928267;29;20212;-76
2021/12/12 09:31:22;;;;;;;13.33;7.63;;;;;;;;;;4920338;29;20201;-77
2021/12/12 09:33:52;;;;;;;10.03;7.17;;;;;;;;;;4935247;29;20185;-77
2021/12/12 09:36:25;;;;;;;10.70;7.37;;;;;;;;;;4913006;29;20528;-78
2021/12/12 09:39:05;;;;;;;12.90;7.73;;;;;;;;;;4942256;28;20309;-77
2021/12/12 09:41:42;;;;;;;15.03;7.43;;;;;;;;;;4934189;29;20186;-77
2021/12/12 09:44:23;;;;;;;11.50;7.07;;;;;;;;;;4934507;29;20333;-77
2021/12/12 09:47:00;;;;;;;12.20;6.90;;;;;;;;;;4922607;29;20258;-78
2021/12/12 09:52:20;;;;;;;13.10;7.03;;;;;;;;;;4937868;29;20194;-76
2021/12/12 09:54:50;;;;;;;14.80;7.93;;;;;;;;;;4937409;29;20217;-76
2021/12/12 09:57:22;;;;;;;12.13;7.73;;;;;;;;;;4931641;29;20252;-76
2021/12/12 09:59:49;;;;;;;12.13;6.90;;;;;;;;;;4933430;29;20205;-76
2021/12/12 10:02:20;;;;;;;10.40;7.53;;;;;;;;;;4915739;29;20693;-76
2021/12/12 10:04:54;;;;;;;13.33;6.63;;;;;;;;;;4931150;29;20249;-76
2021/12/12 10:07:35;;;;;;;8.57;6.40;;;;;;;;;;4931278;29;20225;-76
2021/12/12 10:10:06;;;;;;;10.73;7.23;;;;;;;;;;4916301;29;20579;-76
2021/12/12 10:12:41;;;;;;;10.37;7.47;;;;;;;;;;4932908;29;20537;-76
2021/12/12 10:15:11;;;;;;;10.23;6.70;;;;;;;;;;4932535;29;20209;-76
2021/12/12 10:17:41;;;;;;;8.47;6.47;;;;;;;;;;4914936;29;20202;-76
2021/12/12 10:20:11;;;;;;;12.23;6.53;;;;;;;;;;4925774;29;20208;-76
2021/12/12 10:22:49;;;;;;;9.07;6.70;;;;;;;;;;4938859;29;20227;-76
2021/12/12 10:25:17;;;;;;;11.10;6.47;;;;;;;;;;4911079;29;20200;-76
2021/12/12 10:27:51;;;;;;;11.63;6.77;;;;;;;;;;4924468;29;20574;-76
2021/12/12 10:30:36;;;;;;;10.43;6.70;;;;;;;;;;4923796;29;21713;-76
2021/12/12 10:33:03;;;;;;;7.80;6.43;;;;;;;;;;4928273;29;20186;-76
2021/12/12 10:35:45;;;;;;;10.50;7.03;;;;;;;;;;4910256;29;20387;-77
2021/12/12 10:38:15;;;;;;;11.10;6.00;;;;;;;;;;4928262;29;20205;-75
2021/12/12 10:40:53;;;;;;;10.27;6.10;;;;;;;;;;4927281;29;20662;-76
2021/12/12 10:43:23;;;;;;;9.67;6.00;;;;;;;;;;4929006;29;20678;-79
2021/12/12 10:45:52;;;;;;;10.17;6.33;;;;;;;;;;4906883;29;20277;-75
2021/12/12 10:48:20;;;;;;;10.07;6.20;;;;;;;;;;4926112;29;20301;-77
2021/12/12 10:50:56;;;;;;;8.70;6.20;;;;;;;;;;4922644;29;20249;-76
2021/12/12 10:53:32;;;;;;;10.83;6.30;;;;;;;;;;4935931;29;20181;-76
2021/12/12 10:56:05;;;;;;;10.73;5.83;;;;;;;;;;4935610;29;20233;-76
2021/12/12 10:58:38;;;;;;;11.63;6.30;;;;;;;;;;4931459;29;20273;-76
2021/12/12 11:01:12;;;;;;;9.53;6.53;;;;;;;;;;4932844;29;20276;-75
2021/12/12 11:03:58;;;;;;;8.00;5.80;;;;;;;;;;4935896;29;20210;-76
2021/12/12 11:06:44;;;;;;;9.43;6.23;;;;;;;;;;4904416;29;20278;-76
2021/12/12 11:09:17;;;;;;;11.70;6.73;;;;;;;;;;4946507;28;20244;-76
2021/12/12 11:11:52;;;;;;;9.60;6.00;;;;;;;;;;4942011;29;20216;-76
2021/12/12 11:14:24;;;;;;;10.43;5.73;;;;;;;;;;4942620;29;20370;-75
2021/12/12 11:16:55;;;;;;;8.07;5.53;;;;;;;;;;4933595;29;20182;-75
2021/12/12 11:19:30;;;;;;;9.33;5.90;;;;;;;;;;4938788;29;20689;-76
2021/12/12 11:22:10;;;;;;;11.10;5.80;;;;;;;;;;4941920;29;20197;-77
2021/12/12 11:24:40;;;;;;;8.77;5.60;;;;;;;;;;4937625;29;20277;-76
2021/12/12 11:27:09;;;;;;;9.07;5.77;;;;;;;;;;4938270;29;20206;-75
2021/12/12 11:29:42;;;;;;;10.77;5.97;;;;;;;;;;4938713;29;20220;-76
2021/12/12 11:32:14;;;;;;;7.97;5.47;;;;;;;;;;4935428;29;20236;-75
2021/12/12 11:34:42;;;;;;;9.20;5.33;;;;;;;;;;4936433;29;20268;-76
2021/12/12 11:37:17;;;;;;;10.43;5.13;;;;;;;;;;4918169;29;20186;-76
2021/12/12 11:39:46;;;;;;;10.93;5.60;;;;;;;;;;4921502;29;20240;-76
2021/12/12 11:42:15;;;;;;;8.53;5.10;;;;;;;;;;4945425;29;20584;-76
2021/12/12 11:44:47;;;;;;;8.60;5.20;;;;;;;;;;4945257;29;20202;-76
2021/12/12 11:47:24;;;;;;;8.10;5.37;;;;;;;;;;4917198;29;20201;-76
2021/12/12 11:49:54;;;;;;;10.83;5.33;;;;;;;;;;4928951;29;20222;-76
2021/12/12 11:52:31;;;;;;;8.07;5.03;;;;;;;;;;4946810;29;20201;-74
2021/12/12 11:55:14;;;;;;;10.50;5.00;;;;;;;;;;4921530;29;20200;-75
2021/12/12 11:57:55;;;;;;;8.33;4.90;;;;;;;;;;4934576;29;20182;-74
2021/12/12 12:00:26;;;;;;;7.67;4.53;;;;;;;;;;4933203;29;20707;-75
2021/12/12 12:03:08;;;;;;;7.63;4.97;;;;;;;;;;4919565;29;20281;-74
2021/12/12 12:05:37;;;;;;;8.33;4.70;;;;;;;;;;4917418;29;20557;-75
2021/12/12 12:08:12;;;;;;;10.47;6.13;;;;;;;;;;4917314;29;20194;-75
2021/12/12 12:10:38;;;;;;;6.70;5.10;;;;;;;;;;4910276;29;20189;-79
2021/12/12 12:13:10;;;;;;;7.80;4.80;;;;;;;;;;4944628;29;20197;-80
2021/12/12 12:15:47;;;;;;;6.97;4.73;;;;;;;;;;4942028;29;20241;-79
2021/12/12 12:18:29;;;;;;;8.97;5.17;;;;;;;;;;4935228;29;20260;-81
2021/12/12 12:21:01;;;;;;;8.03;4.97;;;;;;;;;;4918845;29;20198;-77
2021/12/12 12:26:51;;;;;;;8.43;5.23;;;;;;;;;;4932863;29;20344;-77
2021/12/12 12:29:30;;;;;;;7.47;4.57;;;;;;;;;;4933043;29;20216;-77
2021/12/12 12:31:56;;;;;;;9.67;4.10;;;;;;;;;;4933282;29;20253;-78
2021/12/12 12:34:42;;;;;;;8.47;4.57;;;;;;;;;;4933910;29;20221;-79
2021/12/12 12:37:26;;;;;;;7.97;4.57;;;;;;;;;;4946192;29;20197;-76
2021/12/12 12:40:11;;;;;;;11.47;4.70;;;;;;;;;;4898076;29;20214;-78
2021/12/12 12:42:57;;;;;;;10.57;4.43;;;;;;;;;;4931901;29;20177;-78
2021/12/12 12:45:29;;;;;;;7.43;4.00;;;;;;;;;;4913122;29;20190;-78
2021/12/12 12:48:13;;;;;;;7.70;4.47;;;;;;;;;;4930428;29;20261;-78
2021/12/12 12:50:55;;;;;;;7.90;4.43;;;;;;;;;;4907940;29;20315;-78
2021/12/12 12:53:52;;;;;;;6.30;4.30;;;;;;;;;;4901819;29;20276;-78
2021/12/12 12:56:24;;;;;;;8.27;4.43;;;;;;;;;;4939702;29;20253;-80
2021/12/12 12:59:12;;;;;;;7.97;4.27;;;;;;;;;;4891656;29;20221;-78
2021/12/12 13:01:41;;;;;;;6.73;4.30;;;;;;;;;;4933504;29;20661;-78
2021/12/12 13:04:22;;;;;;;8.37;4.00;;;;;;;;;;4936413;29;20281;-79
2021/12/12 13:06:48;;;;;;;7.83;4.13;;;;;;;;;;4937456;29;20221;-79
2021/12/12 13:09:21;;;;;;;8.43;4.27;;;;;;;;;;4910140;29;20239;-79
2021/12/12 13:12:01;;;;;;;10.13;4.83;;;;;;;;;;4932899;29;20190;-79
2021/12/12 13:14:34;;;;;;;8.33;5.40;;;;;;;;;;4917568;29;20216;-79
2021/12/12 13:17:11;;;;;;;9.40;5.60;;;;;;;;;;4935318;29;20190;-79
2021/12/12 13:19:37;;;;;;;13.87;6.17;;;;;;;;;;4934809;29;20569;-79
2021/12/12 13:22:09;;;;;;;9.17;5.47;;;;;;;;;;4934827;29;20218;-79
2021/12/12 13:24:35;;;;;;;9.47;6.60;;;;;;;;;;4934289;29;20200;-79
2021/12/12 13:27:20;;;;;;;11.00;5.90;;;;;;;;;;4935050;29;20619;-79
2021/12/12 13:30:03;;;;;;;8.93;6.00;;;;;;;;;;4933915;29;20284;-79
2021/12/12 13:32:36;;;;;;;30.33;22.03;;;;;;;;;;4930502;29;20193;-77
2021/12/12 13:35:23;;;;;;;12.70;8.57;;;;;;;;;;4911828;29;20231;-77
2021/12/12 13:37:55;;;;;;;11.33;6.30;;;;;;;;;;4933988;29;20237;-77
2021/12/12 13:40:36;;;;;;;7.77;4.97;;;;;;;;;;4930642;29;20249;-77
2021/12/12 13:43:14;;;;;;;9.70;4.00;;;;;;;;;;4931593;29;20198;-77
2021/12/12 13:45:49;;;;;;;8.33;4.17;;;;;;;;;;4916407;29;20657;-77
2021/12/12 13:48:33;;;;;;;7.13;4.07;;;;;;;;;;4932075;29;20217;-78
2021/12/12 13:51:02;;;;;;;9.23;4.27;;;;;;;;;;4930973;29;20688;-78
2021/12/12 13:53:37;;;;;;;8.87;4.97;;;;;;;;;;4934819;29;20233;-77
2021/12/12 13:56:08;;;;;;;7.70;4.77;;;;;;;;;;4917947;29;20212;-77
2021/12/12 13:58:58;;;;;;;8.53;6.07;;;;;;;;;;4934395;29;20210;-77
2021/12/12 14:01:34;;;;;;;8.43;4.90;;;;;;;;;;4916604;29;20554;-77
2021/12/12 14:04:11;;;;;;;9.50;6.30;;;;;;;;;;4935004;29;20190;-77
2021/12/12 14:06:40;;;;;;;8.80;4.40;;;;;;;;;;4930291;29;20528;-78
2021/12/12 14:09:08;;;;;;;6.73;3.93;;;;;;;;;;4933487;29;20232;-77
2021/12/12 14:11:37;;;;;;;9.10;4.17;;;;;;;;;;4930214;29;20265;-77
2021/12/12 14:14:11;;;;;;;9.93;3.60;;;;;;;;;;4931454;29;20375;-77
2021/12/12 14:16:40;;;;;;;6.57;3.30;;;;;;;;;;4932072;29;20554;-77
2021/12/12 14:19:09;;;;;;;6.53;3.50;;;;;;;;;;4903323;29;20296;-75
2021/12/12 14:21:36;;;;;;;6.00;3.90;;;;;;;;;;4913684;29;20186;-76
2021/12/12 14:24:06;;;;;;;6.17;3.83;;;;;;;;;;4932653;29;20229;-76
2021/12/12 14:26:42;;;;;;;8.80;3.70;;;;;;;;;;4931326;29;20689;-76
2021/12/12 14:29:12;;;;;;;9.17;3.93;;;;;;;;;;4910385;29;20304;-76
2021/12/12 14:31:40;;;;;;;5.73;3.53;;;;;;;;;;4930145;29;20650;-79
2021/12/12 14:34:11;;;;;;;8.53;4.10;;;;;;;;;;4922255;29;20190;-77
2021/12/12 14:36:41;;;;;;;7.27;4.53;;;;;;;;;;4929575;29;20190;-76
2021/12/12 14:39:08;;;;;;;8.10;4.93;;;;;;;;;;4931903;29;20204;-78
2021/12/12 14:41:38;;;;;;;6.37;4.47;;;;;;;;;;4928607;29;20213;-77
2021/12/12 14:44:09;;;;;;;7.13;4.27;;;;;;;;;;4943572;29;20564;-75
2021/12/12 14:46:39;;;;;;;8.63;4.17;;;;;;;;;;4937481;28;20193;-75
2021/12/12 14:49:07;;;;;;;7.93;4.50;;;;;;;;;;4949826;28;20589;-76
2021/12/12 14:51:43;;;;;;;12.03;4.23;;;;;;;;;;4937709;29;20186;-76
2021/12/12 14:54:13;;;;;;;9.60;4.10;;;;;;;;;;4921499;29;20181;-76
2021/12/12 14:56:42;;;;;;;9.13;4.50;;;;;;;;;;4939290;28;20551;-73
2021/12/12 14:59:10;;;;;;;9.60;4.50;;;;;;;;;;4916570;29;20300;-76
2021/12/12 15:01:36;;;;;;;7.90;4.07;;;;;;;;;;4914992;29;20194;-76
2021/12/12 15:04:22;;;;;;;7.43;4.37;;;;;;;;;;4916101;29;20193;-76
2021/12/12 15:06:55;;;;;;;6.83;4.60;;;;;;;;;;4913392;29;20225;-76
2021/12/12 15:09:24;;;;;;;9.17;5.17;;;;;;;;;;4931006;29;20205;-80
2021/12/12 15:11:59;;;;;;;8.87;4.83;;;;;;;;;;4914982;29;20192;-77
2021/12/12 15:14:27;;;;;;;9.67;4.53;;;;;;;;;;4912035;29;20595;-77